createdAt,value
2022-07-30T00:00:24.896Z,33.08
2022-07-30T00:01:28.277Z,27.42
2022-07-30T00:02:29.773Z,29.60
2022-07-30T00:03:32.802Z,27.83
2022-07-30T00:04:34.283Z,26.13
2022-07-30T00:05:35.806Z,23.70
2022-07-30T00:06:37.285Z,24.05
2022-07-30T00:07:38.741Z,23.77
2022-07-30T00:08:40.361Z,23.50
2022-07-30T00:09:41.840Z,22.42
2022-07-30T00:10:43.315Z,21.70
2022-07-30T00:11:47.369Z,19.73
2022-07-30T00:12:49.106Z,21.23
2022-07-30T00:13:50.561Z,18.73
2022-07-30T00:14:52.010Z,17.00
2022-07-30T00:15:54.176Z,18.92
2022-07-30T00:16:57.080Z,19.35
2022-07-30T00:17:58.660Z,18.77
2022-07-30T00:19:01.819Z,19.88
2022-07-30T00:20:04.910Z,19.30
2022-07-30T00:21:06.693Z,18.58
2022-07-30T00:22:08.137Z,18.83
2022-07-30T00:23:09.597Z,16.48
2022-07-30T00:24:11.373Z,17.95
2022-07-30T00:25:12.854Z,19.83
2022-07-30T00:26:14.352Z,17.48
2022-07-30T00:27:15.829Z,18.13
2022-07-30T00:28:17.268Z,17.73
2022-07-30T00:29:18.735Z,18.77
2022-07-30T00:30:20.214Z,17.77
2022-07-30T00:31:21.666Z,15.55
2022-07-30T00:32:24.435Z,20.25
2022-07-30T00:33:25.896Z,15.73
2022-07-30T00:34:27.335Z,15.70
2022-07-30T00:35:28.936Z,17.25
2022-07-30T00:36:30.396Z,15.77
2022-07-30T00:37:31.935Z,15.63
2022-07-30T00:38:33.412Z,16.67
2022-07-30T00:39:34.850Z,17.35
2022-07-30T00:40:36.399Z,17.55
2022-07-30T00:41:53.665Z,17.95
2022-07-30T00:42:55.126Z,14.13
2022-07-30T00:43:56.620Z,16.50
2022-07-30T00:44:58.058Z,15.93
2022-07-30T00:45:59.557Z,15.02
2022-07-30T00:47:01.347Z,17.15
2022-07-30T00:48:05.053Z,15.98
2022-07-30T00:49:06.572Z,15.40
2022-07-30T00:50:12.557Z,15.38
2022-07-30T00:51:14.033Z,18.40
2022-07-30T00:52:15.512Z,16.23
2022-07-30T00:53:16.995Z,17.10
2022-07-30T00:54:18.778Z,13.25
2022-07-30T00:55:20.201Z,13.90
2022-07-30T00:56:21.625Z,11.48
2022-07-30T00:57:23.105Z,11.63
2022-07-30T00:58:24.593Z,15.05
2022-07-30T00:59:26.050Z,11.27
2022-07-30T01:00:28.099Z,10.52
2022-07-30T01:01:31.572Z,13.20
2022-07-30T01:02:33.112Z,11.55
2022-07-30T01:03:37.557Z,9.80
2022-07-30T01:04:39.059Z,9.95
2022-07-30T01:05:40.510Z,11.35
2022-07-30T01:06:41.959Z,10.32
2022-07-30T01:07:44.143Z,11.77
2022-07-30T01:08:45.569Z,10.10
2022-07-30T01:09:48.488Z,9.48
2022-07-30T01:10:50.234Z,8.73
2022-07-30T01:11:51.820Z,11.40
2022-07-30T01:12:53.494Z,9.45
2022-07-30T01:13:54.997Z,9.52
2022-07-30T01:14:57.682Z,11.23
2022-07-30T01:15:59.134Z,9.27
2022-07-30T01:17:01.282Z,10.75
2022-07-30T01:18:06.628Z,14.32
2022-07-30T01:19:14.042Z,9.90
2022-07-30T01:20:20.652Z,11.07
2022-07-30T01:21:30.861Z,11.75
2022-07-30T01:22:39.700Z,16.35
2022-07-30T01:23:45.419Z,11.40
2022-07-30T01:24:55.592Z,10.52
2022-07-30T01:26:04.101Z,15.77
2022-07-30T01:27:07.211Z,12.80
2022-07-30T01:28:12.341Z,12.55
2022-07-30T01:29:14.957Z,11.20
2022-07-30T01:30:20.098Z,14.63
2022-07-30T01:31:24.174Z,11.70
2022-07-30T01:32:27.083Z,12.98
2022-07-30T01:33:29.800Z,12.35
2022-07-30T01:34:34.194Z,10.63
2022-07-30T01:35:36.739Z,12.85
2022-07-30T01:36:38.991Z,12.27
2022-07-30T01:37:42.168Z,10.50
2022-07-30T01:38:45.425Z,11.82
2022-07-30T01:39:47.917Z,12.73
2022-07-30T01:40:50.676Z,12.35
2022-07-30T01:41:55.522Z,12.73
2022-07-30T01:42:59.157Z,13.60
2022-07-30T01:44:02.543Z,10.48
2022-07-30T01:45:05.798Z,10.73
2022-07-30T01:46:10.097Z,8.90
2022-07-30T01:47:13.778Z,9.77
2022-07-30T01:48:18.378Z,8.85
2022-07-30T01:49:21.313Z,9.95
2022-07-30T01:50:23.329Z,10.23
2022-07-30T01:51:26.112Z,10.30
2022-07-30T01:52:37.652Z,10.27
2022-07-30T01:53:42.265Z,10.70
2022-07-30T01:54:46.470Z,10.30
2022-07-30T01:55:48.990Z,10.10
2022-07-30T01:56:52.045Z,11.88
2022-07-30T01:57:58.894Z,14.00
2022-07-30T01:59:02.650Z,8.82
2022-07-30T02:00:06.908Z,10.48
2022-07-30T02:01:08.737Z,8.85
2022-07-30T02:02:10.215Z,9.45
2022-07-30T02:03:12.067Z,10.40
2022-07-30T02:04:13.894Z,11.23
2022-07-30T02:05:15.478Z,11.02
2022-07-30T02:06:21.185Z,16.67
2022-07-30T02:07:27.575Z,16.27
2022-07-30T02:08:36.533Z,13.95
2022-07-30T02:09:47.211Z,15.27
2022-07-30T02:10:52.656Z,12.13
2022-07-30T02:11:57.949Z,11.68
2022-07-30T02:13:04.557Z,10.63
2022-07-30T02:14:10.091Z,11.30
2022-07-30T02:15:17.586Z,12.15
2022-07-30T02:16:23.970Z,11.25
2022-07-30T02:17:30.385Z,10.93
2022-07-30T02:18:43.616Z,9.80
2022-07-30T02:19:51.238Z,13.77
2022-07-30T02:21:00.177Z,11.40
2022-07-30T02:22:06.810Z,16.30
2022-07-30T02:23:12.408Z,13.48
2022-07-30T02:24:18.980Z,15.85
2022-07-30T02:25:21.413Z,17.75
2022-07-30T02:26:26.242Z,17.70
2022-07-30T02:27:31.650Z,12.48
2022-07-30T02:28:39.294Z,16.48
2022-07-30T02:29:42.878Z,18.00
2022-07-30T02:30:48.199Z,20.23
2022-07-30T02:31:51.315Z,12.52
2022-07-30T02:32:55.589Z,10.77
2022-07-30T02:34:00.383Z,17.17
2022-07-30T02:35:09.592Z,16.15
2022-07-30T02:36:12.381Z,10.35
2022-07-30T02:37:15.350Z,10.10
2022-07-30T02:38:18.660Z,8.25
2022-07-30T02:39:21.239Z,15.23
2022-07-30T02:40:23.611Z,8.15
2022-07-30T02:41:28.144Z,15.48
2022-07-30T02:42:31.694Z,17.70
2022-07-30T02:43:36.618Z,9.23
2022-07-30T02:44:40.276Z,10.93
2022-07-30T02:45:43.590Z,15.15
2022-07-30T02:46:46.991Z,15.98
2022-07-30T02:47:54.618Z,19.73
2022-07-30T02:48:57.387Z,15.77
2022-07-30T02:50:00.754Z,13.25
2022-07-30T02:51:04.186Z,10.88
2022-07-30T02:52:08.072Z,12.88
2022-07-30T02:53:11.774Z,17.30
2022-07-30T02:54:14.524Z,17.25
2022-07-30T02:55:17.872Z,8.75
2022-07-30T02:56:21.403Z,8.38
2022-07-30T02:57:23.376Z,11.55
2022-07-30T02:58:26.537Z,12.57
2022-07-30T02:59:31.429Z,12.98
2022-07-30T03:00:34.569Z,11.82
2022-07-30T03:01:37.358Z,13.13
2022-07-30T03:02:39.995Z,15.27
2022-07-30T03:03:46.309Z,10.27
2022-07-30T03:04:49.191Z,11.63
2022-07-30T03:05:52.437Z,15.38
2022-07-30T03:06:55.521Z,12.63
2022-07-30T03:07:59.181Z,17.85
2022-07-30T03:09:02.835Z,15.23
2022-07-30T03:10:07.544Z,15.93
2022-07-30T03:11:11.383Z,13.05
2022-07-30T03:12:14.494Z,11.63
2022-07-30T03:13:17.820Z,13.02
2022-07-30T03:14:19.523Z,10.35
2022-07-30T03:15:22.708Z,9.20
2022-07-30T03:16:26.354Z,10.63
2022-07-30T03:17:31.769Z,11.68
2022-07-30T03:18:35.065Z,14.02
2022-07-30T03:19:39.836Z,19.55
2022-07-30T03:20:45.892Z,17.60
2022-07-30T03:21:48.597Z,16.35
2022-07-30T03:22:53.781Z,14.80
2022-07-30T03:23:57.481Z,14.13
2022-07-30T03:24:59.250Z,11.90
2022-07-30T03:26:02.804Z,16.05
2022-07-30T03:27:05.439Z,9.75
2022-07-30T03:28:07.763Z,11.55
2022-07-30T03:29:10.788Z,14.07
2022-07-30T03:30:13.181Z,13.60
2022-07-30T03:31:16.809Z,12.75
2022-07-30T03:32:20.037Z,15.68
2022-07-30T03:33:38.349Z,11.73
2022-07-30T03:34:41.617Z,12.35
2022-07-30T03:35:43.496Z,9.88
2022-07-30T03:36:44.996Z,10.98
2022-07-30T03:37:47.330Z,18.02
2022-07-30T03:38:49.782Z,14.95
2022-07-30T03:39:51.443Z,13.30
2022-07-30T03:40:53.218Z,11.65
2022-07-30T03:41:55.239Z,9.75
2022-07-30T03:42:59.942Z,13.68
2022-07-30T03:44:02.323Z,11.38
2022-07-30T03:45:05.910Z,14.07
2022-07-30T03:46:09.241Z,9.60
2022-07-30T03:47:13.537Z,12.30
2022-07-30T03:48:15.737Z,14.23
2022-07-30T03:49:17.968Z,16.92
2022-07-30T03:50:19.554Z,10.82
2022-07-30T03:51:21.961Z,17.45
2022-07-30T03:52:23.609Z,12.73
2022-07-30T03:53:25.360Z,18.17
2022-07-30T03:54:27.256Z,12.68
2022-07-30T03:55:28.794Z,14.50
2022-07-30T03:56:30.359Z,14.73
2022-07-30T03:57:32.177Z,11.23
2022-07-30T03:58:36.082Z,14.05
2022-07-30T03:59:38.905Z,15.23
2022-07-30T04:00:41.025Z,9.88
2022-07-30T04:01:42.802Z,13.50
2022-07-30T04:02:46.941Z,16.15
2022-07-30T04:03:48.445Z,13.65
2022-07-30T04:04:50.211Z,14.98
2022-07-30T04:05:51.658Z,10.38
2022-07-30T04:06:53.093Z,12.38
2022-07-30T04:07:54.519Z,14.48
2022-07-30T04:08:56.269Z,14.25
2022-07-30T04:09:57.691Z,12.18
2022-07-30T04:10:59.128Z,12.98
2022-07-30T04:12:00.548Z,15.35
2022-07-30T04:13:03.563Z,13.85
2022-07-30T04:14:06.968Z,10.80
2022-07-30T04:16:05.733Z,14.27
2022-07-30T04:16:42.192Z,9.82
2022-07-30T04:17:49.034Z,12.35
2022-07-30T04:18:53.158Z,12.13
2022-07-30T04:19:59.987Z,12.73
2022-07-30T04:21:03.870Z,9.68
2022-07-30T04:22:07.715Z,9.93
2022-07-30T04:23:10.557Z,11.77
2022-07-30T04:24:13.879Z,12.65
2022-07-30T04:25:20.473Z,10.15
2022-07-30T04:26:26.289Z,11.98
2022-07-30T04:27:28.319Z,13.48
2022-07-30T04:28:29.876Z,10.18
2022-07-30T04:29:31.573Z,11.40
2022-07-30T04:30:33.377Z,9.43
2022-07-30T04:31:40.670Z,11.50
2022-07-30T04:32:42.884Z,10.98
2022-07-30T04:33:46.632Z,9.43
2022-07-30T04:34:49.238Z,9.50
2022-07-30T04:35:52.365Z,13.52
2022-07-30T04:36:54.022Z,11.45
2022-07-30T04:37:55.504Z,12.90
2022-07-30T04:38:56.984Z,11.63
2022-07-30T04:39:58.421Z,8.40
2022-07-30T04:40:59.965Z,9.20
2022-07-30T04:42:01.475Z,11.45
2022-07-30T04:43:02.959Z,8.38
2022-07-30T04:44:05.340Z,7.60
2022-07-30T04:45:07.998Z,12.60
2022-07-30T04:46:13.938Z,17.48
2022-07-30T04:47:15.574Z,10.65
2022-07-30T04:48:17.019Z,10.95
2022-07-30T04:49:22.624Z,9.75
2022-07-30T04:50:27.437Z,14.73
2022-07-30T04:51:32.392Z,11.68
2022-07-30T04:52:34.361Z,12.07
2022-07-30T04:53:35.961Z,10.65
2022-07-30T04:54:40.814Z,10.50
2022-07-30T04:55:44.817Z,10.43
2022-07-30T04:56:50.272Z,10.25
2022-07-30T04:57:56.473Z,10.70
2022-07-30T04:58:58.874Z,8.98
2022-07-30T05:00:00.425Z,14.32
2022-07-30T05:01:03.044Z,18.73
2022-07-30T05:02:07.328Z,11.98
2022-07-30T05:03:13.144Z,9.90
2022-07-30T05:04:16.204Z,9.60
2022-07-30T05:05:20.276Z,14.93
2022-07-30T05:06:22.520Z,13.45
2022-07-30T05:07:24.352Z,13.80
2022-07-30T05:08:26.800Z,9.48
2022-07-30T05:09:29.034Z,13.32
2022-07-30T05:10:30.611Z,9.68
2022-07-30T05:11:32.120Z,14.77
2022-07-30T05:12:33.799Z,14.77
2022-07-30T05:13:38.303Z,11.32
2022-07-30T05:14:40.129Z,11.25
2022-07-30T05:15:42.550Z,11.15
2022-07-30T05:16:44.015Z,10.75
2022-07-30T05:17:46.669Z,9.30
2022-07-30T05:18:48.145Z,12.93
2022-07-30T05:19:49.599Z,10.68
2022-07-30T05:20:52.871Z,9.38
2022-07-30T05:21:54.526Z,11.90
2022-07-30T05:22:55.948Z,10.57
2022-07-30T05:23:57.399Z,11.23
2022-07-30T05:24:59.054Z,11.20
2022-07-30T05:26:00.514Z,9.82
2022-07-30T05:27:02.358Z,12.80
2022-07-30T05:28:04.208Z,13.57
2022-07-30T05:29:06.964Z,13.13
2022-07-30T05:30:10.236Z,10.60
2022-07-30T05:31:14.003Z,12.55
2022-07-30T05:32:19.465Z,9.13
2022-07-30T05:33:22.478Z,11.15
2022-07-30T05:35:52.820Z,10.30
2022-07-30T05:36:54.381Z,11.40
2022-07-30T05:37:55.838Z,8.75
2022-07-30T05:38:57.307Z,9.65
2022-07-30T05:40:03.226Z,9.85
2022-07-30T05:41:04.957Z,16.40
2022-07-30T05:42:25.988Z,10.57
2022-07-30T05:43:27.512Z,11.85
2022-07-30T05:44:28.955Z,8.60
2022-07-30T05:45:30.414Z,11.15
2022-07-30T05:46:31.921Z,11.07
2022-07-30T05:47:33.395Z,12.88
2022-07-30T05:48:35.017Z,11.98
2022-07-30T05:49:36.441Z,11.10
2022-07-30T05:50:38.014Z,10.82
2022-07-30T05:51:41.629Z,10.50
2022-07-30T05:52:43.075Z,10.88
2022-07-30T05:53:44.516Z,11.10
2022-07-30T05:54:46.012Z,13.65
2022-07-30T05:55:47.470Z,9.35
2022-07-30T05:56:48.921Z,8.55
2022-07-30T05:57:50.385Z,11.40
2022-07-30T05:58:52.093Z,7.60
2022-07-30T05:59:53.564Z,10.57
2022-07-30T06:00:55.069Z,11.73
2022-07-30T06:01:56.568Z,10.95
2022-07-30T06:02:58.017Z,9.93
2022-07-30T06:03:59.487Z,9.07
2022-07-30T06:05:01.273Z,9.02
2022-07-30T06:06:03.425Z,10.10
2022-07-30T06:07:06.223Z,11.60
2022-07-30T06:08:07.811Z,9.40
2022-07-30T06:09:09.243Z,8.00
2022-07-30T06:10:10.793Z,12.52
2022-07-30T06:11:12.262Z,14.77
2022-07-30T06:12:13.746Z,12.43
2022-07-30T06:13:15.217Z,8.73
2022-07-30T06:14:16.672Z,9.57
2022-07-30T06:15:25.626Z,9.63
2022-07-30T06:16:27.901Z,10.52
2022-07-30T06:17:29.485Z,9.57
2022-07-30T06:18:30.908Z,8.32
2022-07-30T06:19:32.383Z,8.75
2022-07-30T06:20:33.882Z,11.00
2022-07-30T06:22:01.443Z,9.73
2022-07-30T06:22:58.066Z,10.50
2022-07-30T06:23:59.505Z,11.02
2022-07-30T06:25:00.979Z,13.48
2022-07-30T06:26:02.469Z,8.02
2022-07-30T06:27:04.850Z,8.35
2022-07-30T06:28:21.314Z,8.85
2022-07-30T06:29:28.052Z,10.27
2022-07-30T06:30:30.331Z,9.07
2022-07-30T06:31:33.115Z,8.48
2022-07-30T06:32:35.525Z,8.00
2022-07-30T06:33:37.026Z,6.88
2022-07-30T06:34:38.497Z,6.97
2022-07-30T06:35:39.945Z,8.38
2022-07-30T06:36:41.385Z,8.30
2022-07-30T06:38:05.838Z,6.90
2022-07-30T06:39:05.657Z,9.13
2022-07-30T06:40:08.592Z,7.85
2022-07-30T06:41:10.032Z,5.88
2022-07-30T06:42:11.482Z,7.57
2022-07-30T06:43:12.920Z,6.97
2022-07-30T06:44:14.429Z,8.68
2022-07-30T06:45:15.946Z,6.25
2022-07-30T06:46:17.648Z,5.85
2022-07-30T06:47:22.522Z,7.43
2022-07-30T06:48:24.045Z,5.97
2022-07-30T06:49:25.570Z,8.43
2022-07-30T06:50:27.295Z,6.03
2022-07-30T06:51:28.745Z,5.47
2022-07-30T06:52:30.170Z,6.53
2022-07-30T06:53:31.625Z,8.18
2022-07-30T06:54:34.407Z,9.32
2022-07-30T06:55:35.959Z,5.15
2022-07-30T06:56:37.468Z,8.32
2022-07-30T06:57:42.391Z,7.13
2022-07-30T06:58:43.956Z,5.78
2022-07-30T06:59:55.995Z,7.10
2022-07-30T07:00:58.355Z,5.55
2022-07-30T07:01:59.845Z,5.05
2022-07-30T07:03:01.372Z,4.28
2022-07-30T07:04:02.978Z,7.13
2022-07-30T07:05:05.305Z,4.43
2022-07-30T07:06:06.831Z,6.15
2022-07-30T07:07:12.627Z,9.48
2022-07-30T07:08:14.981Z,7.97
2022-07-30T07:09:16.501Z,6.38
2022-07-30T07:10:19.269Z,6.38
2022-07-30T07:11:20.753Z,6.90
2022-07-30T07:12:22.182Z,5.18
2022-07-30T07:13:23.653Z,5.30
2022-07-30T07:14:25.241Z,6.57
2022-07-30T07:15:37.270Z,4.55
2022-07-30T07:16:39.158Z,6.57
2022-07-30T07:17:40.675Z,7.88
2022-07-30T07:18:42.166Z,8.50
2022-07-30T07:20:00.103Z,6.85
2022-07-30T07:21:03.305Z,5.03
2022-07-30T07:22:04.760Z,4.68
2022-07-30T07:23:09.381Z,5.55
2022-07-30T07:24:13.682Z,8.23
2022-07-30T07:25:15.146Z,5.85
2022-07-30T07:26:17.959Z,7.28
2022-07-30T07:27:19.388Z,6.57
2022-07-30T07:28:20.816Z,6.07
2022-07-30T07:29:22.253Z,6.90
2022-07-30T07:30:23.716Z,8.05
2022-07-30T07:32:06.888Z,11.57
2022-07-30T07:32:46.598Z,5.70
2022-07-30T07:33:48.087Z,9.07
2022-07-30T07:34:49.583Z,6.97
2022-07-30T07:35:51.061Z,4.95
2022-07-30T07:36:52.490Z,6.15
2022-07-30T07:37:53.903Z,11.18
2022-07-30T07:38:55.562Z,8.27
2022-07-30T07:39:57.191Z,5.88
2022-07-30T07:40:58.721Z,4.43
2022-07-30T07:42:01.501Z,7.13
2022-07-30T07:43:02.986Z,7.57
2022-07-30T07:44:05.762Z,5.45
2022-07-30T07:45:08.166Z,8.43
2022-07-30T07:46:09.690Z,9.85
2022-07-30T07:47:11.226Z,6.63
2022-07-30T07:48:12.745Z,6.45
2022-07-30T07:49:14.356Z,5.25
2022-07-30T07:50:17.458Z,9.95
2022-07-30T07:51:46.718Z,8.30
2022-07-30T07:52:40.366Z,6.15
2022-07-30T07:53:41.807Z,5.53
2022-07-30T07:54:43.241Z,5.07
2022-07-30T07:55:45.746Z,7.00
2022-07-30T07:56:47.178Z,5.85
2022-07-30T07:57:51.061Z,10.15
2022-07-30T07:58:56.378Z,7.40
2022-07-30T07:59:58.100Z,10.10
2022-07-30T08:00:59.586Z,7.80
2022-07-30T08:02:03.925Z,7.43
2022-07-30T08:03:05.649Z,6.53
2022-07-30T08:04:10.370Z,8.55
2022-07-30T08:05:12.266Z,7.72
2022-07-30T08:06:15.225Z,5.45
2022-07-30T08:07:16.797Z,6.15
2022-07-30T08:08:18.231Z,8.63
2022-07-30T08:09:19.669Z,4.97
2022-07-30T08:10:21.160Z,5.28
2022-07-30T08:11:22.625Z,5.60
2022-07-30T08:12:24.430Z,8.65
2022-07-30T08:13:51.423Z,7.75
2022-07-30T08:14:48.660Z,4.63
2022-07-30T08:15:50.213Z,5.65
2022-07-30T08:16:51.676Z,5.10
2022-07-30T08:17:53.149Z,5.07
2022-07-30T08:18:54.599Z,5.78
2022-07-30T08:19:58.472Z,6.97
2022-07-30T08:20:59.913Z,4.43
2022-07-30T08:22:01.337Z,6.57
2022-07-30T08:23:02.782Z,3.55
2022-07-30T08:24:04.574Z,6.00
2022-07-30T08:25:07.944Z,5.68
2022-07-30T08:26:09.428Z,4.68
2022-07-30T08:27:10.919Z,4.32
2022-07-30T08:28:35.390Z,5.30
2022-07-30T08:31:43.063Z,7.28
2022-07-30T08:32:44.478Z,5.82
2022-07-30T08:33:45.948Z,6.60
2022-07-30T08:34:47.433Z,10.50
2022-07-30T08:35:54.947Z,5.85
2022-07-30T08:37:04.612Z,5.90
2022-07-30T08:38:06.088Z,6.13
2022-07-30T08:39:08.029Z,9.55
2022-07-30T08:40:10.688Z,6.65
2022-07-30T08:41:12.831Z,7.25
2022-07-30T08:42:14.313Z,5.13
2022-07-30T08:43:16.175Z,6.88
2022-07-30T08:44:18.838Z,5.25
2022-07-30T08:45:34.488Z,5.68
2022-07-30T08:46:40.548Z,5.95
2022-07-30T08:47:45.621Z,3.42
2022-07-30T08:48:47.274Z,5.70
2022-07-30T08:49:49.011Z,5.53
2022-07-30T08:50:50.934Z,5.85
2022-07-30T08:51:52.823Z,3.75
2022-07-30T08:52:55.328Z,5.10
2022-07-30T08:53:57.222Z,4.68
2022-07-30T08:54:58.786Z,6.45
2022-07-30T08:56:00.672Z,7.93
2022-07-30T08:57:02.591Z,4.00
2022-07-30T08:58:18.891Z,4.50
2022-07-30T08:59:23.398Z,5.25
2022-07-30T09:00:26.236Z,5.45
2022-07-30T09:01:27.857Z,4.43
2022-07-30T09:02:31.317Z,3.88
2022-07-30T09:03:33.252Z,5.80
2022-07-30T09:04:34.736Z,5.70
2022-07-30T09:05:36.293Z,5.90
2022-07-30T09:06:37.760Z,6.35
2022-07-30T09:07:40.181Z,5.28
2022-07-30T09:08:42.349Z,6.78
2022-07-30T09:09:43.782Z,5.47
2022-07-30T09:10:52.779Z,5.65
2022-07-30T09:11:55.061Z,5.82
2022-07-30T09:12:56.531Z,5.95
2022-07-30T09:14:08.670Z,4.07
2022-07-30T09:15:13.415Z,5.55
2022-07-30T09:16:23.399Z,5.47
2022-07-30T09:17:25.058Z,4.72
2022-07-30T09:18:28.922Z,4.85
2022-07-30T09:19:30.364Z,4.82
2022-07-30T09:20:34.390Z,4.13
2022-07-30T09:21:35.863Z,4.43
2022-07-30T09:22:43.035Z,3.15
2022-07-30T09:24:01.618Z,8.90
2022-07-30T09:25:03.339Z,7.82
2022-07-30T09:26:04.846Z,6.18
2022-07-30T09:27:06.599Z,6.72
2022-07-30T09:28:15.807Z,5.75
2022-07-30T09:29:19.574Z,7.60
2022-07-30T09:30:21.087Z,6.68
2022-07-30T09:31:23.933Z,7.32
2022-07-30T09:32:25.432Z,3.17
2022-07-30T09:33:35.363Z,6.35
2022-07-30T09:34:39.411Z,3.75
2022-07-30T09:35:41.930Z,5.60
2022-07-30T09:36:43.420Z,6.30
2022-07-30T09:37:45.166Z,6.63
2022-07-30T09:38:48.803Z,6.80
2022-07-30T09:39:59.356Z,4.88
2022-07-30T09:41:08.051Z,7.50
2022-07-30T09:42:19.977Z,7.63
2022-07-30T09:43:25.940Z,7.65
2022-07-30T09:44:30.167Z,8.75
2022-07-30T09:45:34.698Z,6.80
2022-07-30T09:46:45.542Z,4.53
2022-07-30T09:47:47.008Z,5.50
2022-07-30T09:48:48.559Z,5.05
2022-07-30T09:50:07.033Z,6.22
2022-07-30T09:51:15.577Z,7.38
2022-07-30T09:52:29.080Z,5.68
2022-07-30T09:53:30.670Z,5.80
2022-07-30T09:54:51.530Z,8.93
2022-07-30T09:55:53.455Z,6.07
2022-07-30T09:57:06.674Z,4.35
2022-07-30T09:58:37.127Z,5.85
2022-07-30T09:59:39.683Z,4.22
2022-07-30T10:00:44.158Z,5.28
2022-07-30T10:02:01.158Z,7.85
2022-07-30T10:03:21.834Z,6.90
2022-07-30T10:04:36.063Z,6.35
2022-07-30T10:05:50.197Z,8.07
2022-07-30T10:06:54.875Z,6.45
2022-07-30T10:07:59.153Z,7.13
2022-07-30T10:09:00.967Z,5.88
2022-07-30T10:10:17.128Z,4.60
2022-07-30T10:11:22.873Z,7.53
2022-07-30T10:12:25.950Z,11.65
2022-07-30T10:13:30.956Z,4.72
2022-07-30T10:14:42.519Z,6.25
2022-07-30T10:15:45.106Z,6.28
2022-07-30T10:16:46.978Z,4.93
2022-07-30T10:17:50.338Z,7.45
2022-07-30T10:18:52.668Z,5.95
2022-07-30T10:19:54.873Z,4.97
2022-07-30T10:20:56.644Z,9.77
2022-07-30T10:22:01.322Z,6.50
2022-07-30T10:23:08.832Z,6.28
2022-07-30T10:24:11.787Z,4.32
2022-07-30T10:25:16.249Z,6.28
2022-07-30T10:26:18.205Z,4.10
2022-07-30T10:27:20.940Z,4.53
2022-07-30T10:28:24.628Z,6.13
2022-07-30T10:29:33.472Z,4.85
2022-07-30T10:30:36.293Z,5.25
2022-07-30T10:31:48.309Z,4.65
2022-07-30T10:32:53.176Z,5.05
2022-07-30T10:33:55.822Z,5.35
2022-07-30T10:34:58.302Z,4.72
2022-07-30T10:35:59.809Z,4.18
2022-07-30T10:37:06.600Z,5.38
2022-07-30T10:38:13.944Z,4.05
2022-07-30T10:39:20.360Z,6.10
2022-07-30T10:40:30.713Z,6.18
2022-07-30T10:41:47.761Z,5.20
2022-07-30T10:43:01.432Z,5.10
2022-07-30T10:44:17.003Z,4.57
2022-07-30T10:45:19.807Z,3.97
2022-07-30T10:46:29.340Z,5.47
2022-07-30T10:47:34.564Z,3.38
2022-07-30T10:48:41.768Z,4.57
2022-07-30T10:50:04.685Z,5.88
2022-07-30T10:51:06.884Z,3.72
2022-07-30T10:52:10.666Z,3.83
2022-07-30T10:53:32.316Z,4.97
2022-07-30T10:54:39.798Z,4.57
2022-07-30T10:55:41.560Z,5.88
2022-07-30T10:56:43.162Z,6.18
2022-07-30T10:58:00.587Z,4.82
2022-07-30T10:59:04.814Z,3.15
2022-07-30T11:00:15.617Z,8.82
2022-07-30T11:01:19.322Z,4.43
2022-07-30T11:02:25.457Z,4.18
2022-07-30T11:03:41.042Z,6.25
2022-07-30T11:04:48.525Z,4.72
2022-07-30T11:05:52.095Z,4.85
2022-07-30T11:07:30.147Z,3.65
2022-07-30T11:08:37.026Z,3.97
2022-07-30T11:09:41.079Z,3.60
2022-07-30T11:10:44.000Z,5.60
2022-07-30T11:12:01.309Z,3.05
2022-07-30T11:13:08.324Z,4.03
2022-07-30T11:14:11.324Z,4.20
2022-07-30T11:15:18.230Z,3.30
2022-07-30T11:16:21.575Z,3.53
2022-07-30T11:17:23.033Z,3.88
2022-07-30T11:18:26.791Z,6.05
2022-07-30T11:19:54.904Z,6.28
2022-07-30T11:21:20.611Z,3.25
2022-07-30T11:22:28.865Z,3.75
2022-07-30T11:23:39.405Z,3.50
2022-07-30T11:24:45.986Z,2.13
2022-07-30T11:25:52.053Z,2.95
2022-07-30T11:26:56.305Z,3.58
2022-07-30T11:27:57.982Z,3.25
2022-07-30T11:28:59.525Z,2.97
2022-07-30T11:30:01.946Z,2.75
2022-07-30T11:31:24.081Z,4.47
2022-07-30T11:32:38.764Z,7.13
2022-07-30T11:33:40.247Z,4.30
2022-07-30T11:34:41.984Z,4.45
2022-07-30T11:36:05.759Z,4.50
2022-07-30T11:38:23.506Z,4.47
2022-07-30T11:40:07.573Z,8.68
2022-07-30T11:41:09.548Z,3.17
2022-07-30T11:42:24.129Z,4.00
2022-07-30T11:43:35.975Z,3.03
2022-07-30T11:44:37.891Z,2.85
2022-07-30T11:45:40.039Z,1.85
2022-07-30T11:46:48.110Z,3.72
2022-07-30T11:47:51.661Z,3.28
2022-07-30T11:48:57.994Z,2.30
2022-07-30T11:49:59.535Z,2.38
2022-07-30T11:51:04.037Z,2.05
2022-07-30T11:52:05.708Z,3.08
2022-07-30T11:53:08.826Z,2.25
2022-07-30T11:54:10.472Z,2.13
2022-07-30T11:55:22.465Z,2.88
2022-07-30T11:56:23.928Z,2.00
2022-07-30T11:57:39.544Z,2.58
2022-07-30T11:58:40.988Z,3.05
2022-07-30T11:59:53.135Z,2.10
2022-07-30T12:00:58.319Z,1.88
2022-07-30T12:02:00.029Z,3.15
2022-07-30T12:03:10.648Z,2.22
2022-07-30T12:04:12.162Z,4.05
2022-07-30T12:05:13.608Z,1.75
2022-07-30T12:06:16.219Z,5.40
2022-07-30T12:07:22.365Z,2.58
2022-07-30T12:08:31.583Z,2.30
2022-07-30T12:09:37.159Z,6.72
2022-07-30T12:10:40.566Z,3.33
2022-07-30T12:11:41.992Z,2.65
2022-07-30T12:12:44.465Z,5.78
2022-07-30T12:13:56.504Z,4.78
2022-07-30T12:15:01.760Z,1.52
2022-07-30T12:16:08.118Z,1.70
2022-07-30T12:17:15.551Z,2.85
2022-07-30T12:18:26.678Z,3.00
2022-07-30T12:20:29.943Z,5.88
2022-07-30T12:21:31.869Z,4.53
2022-07-30T12:22:34.302Z,2.17
2022-07-30T12:23:36.314Z,3.13
2022-07-30T12:24:37.790Z,2.70
2022-07-30T12:25:47.855Z,1.98
2022-07-30T12:26:52.957Z,4.03
2022-07-30T12:27:54.423Z,1.75
2022-07-30T12:28:56.874Z,2.53
2022-07-30T12:29:58.478Z,2.47
2022-07-30T12:31:00.789Z,2.63
2022-07-30T12:32:02.742Z,2.08
2022-07-30T12:33:04.291Z,2.75
2022-07-30T12:34:18.313Z,2.85
2022-07-30T12:35:19.898Z,2.65
2022-07-30T12:36:28.257Z,1.95
2022-07-30T12:37:29.963Z,2.80
2022-07-30T12:38:43.519Z,3.53
2022-07-30T12:39:45.020Z,3.70
2022-07-30T12:40:57.050Z,2.33
2022-07-30T12:41:58.490Z,5.03
2022-07-30T12:42:59.948Z,3.15
2022-07-30T12:44:01.389Z,2.60
2022-07-30T12:45:03.364Z,2.08
2022-07-30T12:46:04.834Z,4.15
2022-07-30T12:47:18.842Z,1.75
2022-07-30T12:48:20.319Z,1.52
2022-07-30T12:49:36.863Z,2.97
2022-07-30T12:50:41.149Z,3.17
2022-07-30T12:51:51.782Z,4.18
2022-07-30T12:52:54.959Z,1.88
2022-07-30T12:53:56.971Z,3.63
2022-07-30T12:55:04.520Z,2.30
2022-07-30T12:56:15.056Z,1.90
2022-07-30T12:57:16.495Z,3.67
2022-07-30T12:58:17.941Z,4.57
2022-07-30T12:59:21.938Z,3.65
2022-07-30T13:00:25.337Z,1.40
2022-07-30T13:01:39.956Z,1.48
2022-07-30T13:02:41.430Z,3.67
2022-07-30T13:03:43.383Z,3.83
2022-07-30T13:05:03.133Z,4.38
2022-07-30T13:06:17.476Z,5.15
2022-07-30T13:07:19.828Z,1.33
2022-07-30T13:08:21.639Z,3.22
2022-07-30T13:09:23.072Z,1.95
2022-07-30T13:10:30.026Z,1.52
2022-07-30T13:11:40.380Z,2.42
2022-07-30T13:12:41.838Z,4.45
2022-07-30T13:13:43.457Z,2.00
2022-07-30T13:14:46.010Z,2.45
2022-07-30T13:15:57.465Z,2.65
2022-07-30T13:16:59.020Z,3.83
2022-07-30T13:18:00.534Z,1.55
2022-07-30T13:19:03.326Z,1.35
2022-07-30T13:20:05.788Z,2.80
2022-07-30T13:21:08.119Z,2.63
2022-07-30T13:22:09.586Z,2.30
2022-07-30T13:23:11.022Z,4.20
2022-07-30T13:24:17.901Z,3.03
2022-07-30T13:25:19.946Z,1.60
2022-07-30T13:26:21.407Z,2.65
2022-07-30T13:27:24.362Z,1.65
2022-07-30T13:28:26.186Z,1.50
2022-07-30T13:29:27.611Z,1.60
2022-07-30T13:30:29.054Z,2.05
2022-07-30T13:31:42.587Z,2.65
2022-07-30T13:32:44.888Z,2.13
2022-07-30T13:33:46.315Z,2.70
2022-07-30T13:34:47.778Z,2.33
2022-07-30T13:35:49.238Z,3.17
2022-07-30T13:36:50.837Z,2.33
2022-07-30T13:37:52.282Z,1.85
2022-07-30T13:38:53.934Z,1.77
2022-07-30T13:39:55.408Z,3.53
2022-07-30T13:41:02.161Z,2.38
2022-07-30T13:42:04.305Z,2.30
2022-07-30T13:43:07.266Z,2.35
2022-07-30T13:44:08.747Z,2.28
2022-07-30T13:45:10.718Z,5.93
2022-07-30T13:46:12.429Z,1.50
2022-07-30T13:47:13.892Z,2.20
2022-07-30T13:48:15.399Z,3.45
2022-07-30T13:49:17.842Z,1.50
2022-07-30T13:50:19.784Z,5.05
2022-07-30T13:51:21.274Z,6.45
2022-07-30T13:52:22.756Z,2.25
2022-07-30T13:53:24.209Z,2.13
2022-07-30T13:54:25.629Z,2.10
2022-07-30T13:55:27.140Z,3.22
2022-07-30T13:56:28.571Z,1.38
2022-07-30T13:57:30.428Z,5.20
2022-07-30T13:58:36.100Z,1.67
2022-07-30T13:59:37.794Z,2.45
2022-07-30T14:00:39.584Z,1.33
2022-07-30T14:01:41.163Z,2.88
2022-07-30T14:02:42.703Z,5.13
2022-07-30T14:03:49.388Z,1.50
2022-07-30T14:04:52.180Z,1.67
2022-07-30T14:05:53.651Z,2.35
2022-07-30T14:06:55.102Z,1.70
2022-07-30T14:07:56.704Z,1.50
2022-07-30T14:08:58.124Z,2.25
2022-07-30T14:09:59.692Z,1.40